createdAt,value
2023-03-25T00:00:41.602Z,99509.94
2023-03-25T00:03:15.209Z,99424.44
2023-03-25T00:05:45.747Z,99453.50
2023-03-25T00:08:14.753Z,99479.50
2023-03-25T00:10:41.744Z,99450.06
2023-03-25T00:13:16.925Z,99411.97
2023-03-25T00:15:45.965Z,99510.53
2023-03-25T00:18:17.179Z,99504.31
2023-03-25T00:20:48.918Z,99494.31
2023-03-25T00:23:20.009Z,99494.75
2023-03-25T00:25:49.396Z,99515.50
2023-03-25T00:28:17.693Z,99508.53
2023-03-25T00:30:49.095Z,99495.06
2023-03-25T00:36:02.245Z,99511.31
2023-03-25T00:38:37.149Z,99521.50
2023-03-25T00:41:17.772Z,99506.88
2023-03-25T00:43:50.227Z,99480.38
2023-03-25T00:46:16.855Z,99523.47
2023-03-25T00:48:47.354Z,99520.38
2023-03-25T00:54:02.297Z,99527.97
2023-03-25T00:56:36.523Z,99505.38
2023-03-25T00:59:03.873Z,99528.59
2023-03-25T01:01:31.277Z,99489.56
2023-03-25T01:03:59.869Z,99519.50
2023-03-25T01:06:37.340Z,99523.63
2023-03-25T01:11:56.200Z,99496.03
2023-03-25T01:17:25.945Z,99482.50
2023-03-25T01:19:52.881Z,99507.41
2023-03-25T01:22:19.679Z,99493.28
2023-03-25T01:24:57.020Z,99459.19
2023-03-25T01:27:52.139Z,99509.44
2023-03-25T01:30:21.696Z,99480.97
2023-03-25T01:32:49.022Z,99494.69
2023-03-25T01:35:17.501Z,99497.09
2023-03-25T01:37:54.354Z,99490.13
2023-03-25T01:40:24.836Z,99496.41
2023-03-25T01:42:53.504Z,99469.75
2023-03-25T01:45:33.031Z,99489.41
2023-03-25T01:48:15.366Z,99490.44
2023-03-25T01:50:53.847Z,99495.63
2023-03-25T01:53:30.290Z,99487.50
2023-03-25T01:58:48.394Z,99485.00
2023-03-25T02:01:30.532Z,99421.50
2023-03-25T02:04:26.022Z,99482.59
2023-03-25T02:07:01.367Z,99455.50
2023-03-25T02:09:33.060Z,99450.06
2023-03-25T02:12:03.193Z,99464.94
2023-03-25T02:14:34.923Z,99427.81
2023-03-25T02:17:39.947Z,99461.53
2023-03-25T02:20:41.752Z,99453.47
2023-03-25T02:23:25.975Z,99463.59
2023-03-25T02:26:06.205Z,99428.69
2023-03-25T02:28:48.517Z,99456.28
2023-03-25T02:31:44.285Z,99445.22
2023-03-25T02:34:29.616Z,99455.88
2023-03-25T02:37:22.342Z,99434.28
2023-03-25T02:42:54.262Z,99436.69
2023-03-25T02:45:34.955Z,99428.66
2023-03-25T02:48:08.912Z,99417.50
2023-03-25T02:50:47.352Z,99434.34
2023-03-25T02:53:21.972Z,99380.72
2023-03-25T02:55:51.437Z,99386.34
2023-03-25T02:58:21.930Z,99417.59
2023-03-25T03:00:51.492Z,99395.13
2023-03-25T03:06:07.250Z,99439.59
2023-03-25T03:08:50.040Z,99438.22
2023-03-25T03:11:36.936Z,99437.88
2023-03-25T03:14:44.640Z,99435.94
2023-03-25T03:17:22.617Z,99433.28
2023-03-25T03:19:59.128Z,99429.03
2023-03-25T03:22:57.009Z,99439.25
2023-03-25T03:25:36.766Z,99430.56
2023-03-25T03:28:11.150Z,99453.38
2023-03-25T03:30:49.709Z,99451.00
2023-03-25T03:33:30.027Z,99448.50
2023-03-25T03:36:12.213Z,99442.81
2023-03-25T03:38:51.758Z,99443.16
2023-03-25T03:41:21.151Z,99438.31
2023-03-25T03:44:28.310Z,99447.94
2023-03-25T03:47:03.901Z,99409.50
2023-03-25T03:49:42.066Z,99451.84
2023-03-25T03:52:17.511Z,99429.84
2023-03-25T03:54:58.894Z,99438.94
2023-03-25T03:57:52.549Z,99467.25
2023-03-25T04:00:33.917Z,99466.63
2023-03-25T04:03:25.024Z,99441.38
2023-03-25T04:06:00.338Z,99455.75
2023-03-25T04:08:32.962Z,99364.88
2023-03-25T04:11:09.463Z,99417.66
2023-03-25T04:13:43.763Z,99471.25
2023-03-25T04:16:11.698Z,99435.56
2023-03-25T04:18:39.631Z,99411.59
2023-03-25T04:21:08.022Z,99437.03
2023-03-25T04:23:35.126Z,99422.16
2023-03-25T04:26:03.530Z,99454.75
2023-03-25T04:28:32.442Z,99483.94
2023-03-25T04:31:01.357Z,99476.16
2023-03-25T04:33:32.293Z,99492.91
2023-03-25T04:36:02.340Z,99498.25
2023-03-25T04:38:29.901Z,99451.44
2023-03-25T04:40:56.765Z,99474.59
2023-03-25T04:43:24.152Z,99458.94
2023-03-25T04:45:56.721Z,99459.41
2023-03-25T04:48:30.215Z,99461.22
2023-03-25T04:51:04.372Z,99480.03
2023-03-25T04:53:33.528Z,99508.59
2023-03-25T04:56:00.449Z,99476.16
2023-03-25T04:58:27.396Z,99515.72
2023-03-25T05:00:56.522Z,99462.53
2023-03-25T05:03:24.094Z,99454.78
2023-03-25T05:05:52.800Z,99476.53
2023-03-25T05:08:22.921Z,99485.44
2023-03-25T05:10:50.281Z,99503.94
2023-03-25T05:13:17.573Z,99509.66
2023-03-25T05:15:44.957Z,99507.31
2023-03-25T05:18:14.862Z,99509.03
2023-03-25T05:20:55.468Z,99480.25
2023-03-25T05:23:35.474Z,99475.44
2023-03-25T05:26:08.347Z,99504.16
2023-03-25T05:28:36.874Z,99506.53
2023-03-25T05:31:15.375Z,99520.00
2023-03-25T05:33:45.091Z,99518.03
2023-03-25T05:36:17.320Z,99486.56
2023-03-25T05:38:45.005Z,99486.88
2023-03-25T05:41:17.140Z,99510.22
2023-03-25T05:43:48.174Z,99518.06
2023-03-25T05:46:22.273Z,99533.03
2023-03-25T05:48:52.312Z,99546.34
2023-03-25T05:51:21.943Z,99543.03
2023-03-25T05:53:54.919Z,99543.19
2023-03-25T05:56:24.483Z,99485.16
2023-03-25T05:58:53.183Z,99442.75
2023-03-25T06:01:32.655Z,99541.59
2023-03-25T06:04:03.622Z,99509.09
2023-03-25T06:06:41.082Z,99511.84
2023-03-25T06:09:08.182Z,99540.00
2023-03-25T06:11:47.169Z,99524.19
2023-03-25T06:14:14.739Z,99560.72
2023-03-25T06:16:42.563Z,99506.47
2023-03-25T06:19:11.941Z,99508.19
2023-03-25T06:21:41.009Z,99534.94
2023-03-25T06:24:08.685Z,99500.53
2023-03-25T06:26:41.426Z,99558.69
2023-03-25T06:29:11.759Z,99552.28
2023-03-25T06:31:39.280Z,99553.47
2023-03-25T06:34:09.407Z,99553.88
2023-03-25T06:36:36.497Z,99467.63
2023-03-25T06:39:06.807Z,99508.25
2023-03-25T06:41:49.910Z,99528.31
2023-03-25T06:44:24.958Z,99511.41
2023-03-25T06:49:38.295Z,99570.53
2023-03-25T06:52:07.465Z,99512.91
2023-03-25T06:54:38.172Z,99509.63
2023-03-25T06:59:50.982Z,99553.41
2023-03-25T07:02:18.626Z,99552.69
2023-03-25T07:04:51.380Z,99512.44
2023-03-25T07:10:01.725Z,99517.09
2023-03-25T07:12:29.033Z,99556.16
2023-03-25T07:14:59.536Z,99507.06
2023-03-25T07:17:27.467Z,99556.50
2023-03-25T07:22:45.440Z,99565.38
2023-03-25T07:25:12.343Z,99529.06
2023-03-25T07:27:40.274Z,99558.88
2023-03-25T07:30:10.240Z,99547.97
2023-03-25T07:32:42.169Z,99547.53
2023-03-25T07:35:10.483Z,99543.25
2023-03-25T07:37:37.394Z,99552.81
2023-03-25T07:40:04.954Z,99543.06
2023-03-25T07:42:32.015Z,99551.47
2023-03-25T07:45:06.764Z,99560.00
2023-03-25T07:47:33.588Z,99532.47
2023-03-25T07:50:00.925Z,99564.19
2023-03-25T07:52:28.181Z,99495.16
2023-03-25T07:54:55.297Z,99514.84
2023-03-25T07:57:25.063Z,99457.63
2023-03-25T07:59:54.161Z,99491.97
2023-03-25T08:02:22.230Z,99505.25
2023-03-25T08:04:50.151Z,99475.50
2023-03-25T08:07:17.374Z,99557.50
2023-03-25T08:09:44.721Z,99503.97
2023-03-25T08:12:17.829Z,99531.13
2023-03-25T08:14:48.436Z,99558.81
2023-03-25T08:17:17.040Z,99551.25
2023-03-25T08:19:44.214Z,99533.47
2023-03-25T08:24:52.956Z,99521.75
2023-03-25T08:27:20.720Z,99510.59
2023-03-25T08:30:07.630Z,99552.41
2023-03-25T08:32:39.329Z,99524.69
2023-03-25T08:35:06.937Z,99524.75
2023-03-25T08:37:51.613Z,99538.97
2023-03-25T08:40:21.737Z,99529.97
2023-03-25T08:42:52.869Z,99533.66
2023-03-25T08:45:35.013Z,99551.78
2023-03-25T08:48:02.755Z,99491.16
2023-03-25T08:50:30.205Z,99479.34
2023-03-25T08:53:01.272Z,99533.38
2023-03-25T08:55:34.096Z,99486.72
2023-03-25T08:58:06.641Z,99512.09
2023-03-25T09:00:38.609Z,99508.13
2023-03-25T09:03:11.180Z,99485.78
2023-03-25T09:05:41.391Z,99508.16
2023-03-25T09:08:12.447Z,99523.19
2023-03-25T09:11:00.686Z,99512.41
2023-03-25T09:13:30.440Z,99438.31
2023-03-25T09:18:41.422Z,99446.38
2023-03-25T09:21:08.774Z,99507.66
2023-03-25T09:23:39.438Z,99505.06
2023-03-25T09:26:19.111Z,99459.28
2023-03-25T09:28:49.167Z,99469.88
2023-03-25T09:31:16.826Z,99446.75
2023-03-25T09:36:38.694Z,99488.91
2023-03-25T09:39:07.320Z,99470.00
2023-03-25T09:45:11.892Z,99503.22
2023-03-25T09:47:42.041Z,99542.34
2023-03-25T09:50:19.476Z,99633.25
2023-03-25T09:52:54.506Z,99665.22
2023-03-25T09:55:31.461Z,99613.66
2023-03-25T09:58:28.253Z,99623.56
2023-03-25T10:01:13.271Z,99591.72
2023-03-25T10:04:02.560Z,99599.81
2023-03-25T10:06:33.144Z,99610.41
2023-03-25T10:09:01.932Z,99619.47
2023-03-25T10:11:47.748Z,99604.03
2023-03-25T10:14:32.909Z,99578.16
2023-03-25T10:17:39.663Z,99604.97
2023-03-25T10:20:41.518Z,99577.63
2023-03-25T10:23:36.679Z,99575.47
2023-03-25T10:26:37.604Z,99559.56
2023-03-25T10:29:06.890Z,99563.91
2023-03-25T10:31:40.268Z,99540.91
2023-03-25T10:34:17.404Z,99539.13
2023-03-25T10:36:55.719Z,99549.50
2023-03-25T10:39:42.345Z,99533.13
2023-03-25T10:42:41.297Z,99545.94
2023-03-25T10:45:18.746Z,99544.03
2023-03-25T10:47:47.021Z,99547.03
2023-03-25T10:50:22.738Z,99552.91
2023-03-25T10:52:52.602Z,99543.97
2023-03-25T10:55:35.769Z,99549.00
2023-03-25T10:58:08.601Z,99556.59
2023-03-25T11:00:42.282Z,99574.47
2023-03-25T11:03:30.184Z,99565.28
2023-03-25T11:06:01.200Z,99557.59
2023-03-25T11:08:32.329Z,99569.09
2023-03-25T11:11:03.847Z,99540.13
2023-03-25T11:13:41.978Z,99530.75
2023-03-25T11:16:17.476Z,99531.56
2023-03-25T11:18:45.104Z,99550.09
2023-03-25T11:21:20.112Z,99501.88
2023-03-25T11:26:49.841Z,99531.38
2023-03-25T11:29:25.662Z,99543.28
2023-03-25T11:32:22.416Z,99486.75
2023-03-25T11:35:01.067Z,99463.88
2023-03-25T11:41:05.560Z,99469.16
2023-03-25T11:46:57.694Z,99495.81
2023-03-25T11:49:38.192Z,99503.19
2023-03-25T11:52:33.629Z,99513.34
2023-03-25T11:55:06.538Z,99513.53
2023-03-25T11:57:45.099Z,99541.03
2023-03-25T12:00:40.284Z,99537.06
2023-03-25T12:03:54.190Z,99510.38
2023-03-25T12:25:30.952Z,99484.34
2023-03-25T12:28:23.659Z,99455.44
2023-03-25T12:31:08.748Z,99471.59
2023-03-25T12:33:53.046Z,99434.72
2023-03-25T12:36:43.169Z,99497.41
2023-03-25T12:39:43.720Z,99485.81
2023-03-25T12:42:54.710Z,99495.16
2023-03-25T12:46:05.047Z,99471.47
2023-03-25T12:49:01.240Z,99484.28
2023-03-25T12:51:42.603Z,99490.19
2023-03-25T12:57:51.017Z,99443.06
2023-03-25T13:00:56.433Z,99467.47
2023-03-25T13:03:48.138Z,99461.19
2023-03-25T13:06:50.008Z,99446.94
2023-03-25T13:09:37.238Z,99442.09
2023-03-25T13:12:16.128Z,99469.63
2023-03-25T13:15:24.626Z,99421.88
2023-03-25T13:18:05.095Z,99503.59
2023-03-25T13:20:40.357Z,99487.06
2023-03-25T13:23:20.810Z,99499.25
2023-03-25T13:26:29.396Z,99506.06
2023-03-25T13:29:04.640Z,99487.38
2023-03-25T13:31:43.786Z,99520.13
2023-03-25T13:34:20.149Z,99519.50
2023-03-25T13:37:18.604Z,99498.91
2023-03-25T13:40:13.529Z,99504.81
2023-03-25T13:43:00.031Z,99515.16
2023-03-25T13:48:44.269Z,99501.53
2023-03-25T13:51:14.012Z,99499.56
2023-03-25T13:57:02.670Z,99503.81
2023-03-25T14:03:17.916Z,99501.66
2023-03-25T14:06:12.575Z,99501.06
2023-03-25T14:09:05.771Z,99510.53
2023-03-25T14:11:53.339Z,99494.69
2023-03-25T14:14:30.061Z,99444.28
2023-03-25T14:17:05.434Z,99491.03
2023-03-25T14:19:42.668Z,99496.13
2023-03-25T14:22:37.846Z,99501.00
2023-03-25T14:25:08.378Z,99504.59
2023-03-25T14:27:43.332Z,99486.91
2023-03-25T14:30:30.096Z,99479.69
2023-03-25T14:33:04.078Z,99463.84
2023-03-25T14:35:34.512Z,99508.16
2023-03-25T14:38:18.766Z,99497.53
2023-03-25T14:41:03.734Z,99441.28
2023-03-25T14:44:11.302Z,99482.44
2023-03-25T14:46:46.807Z,99481.63
2023-03-25T14:52:18.930Z,99493.03
2023-03-25T14:55:01.971Z,99482.81
2023-03-25T14:57:39.956Z,99466.94
2023-03-25T15:00:38.039Z,99484.63
2023-03-25T15:03:13.694Z,99471.63
2023-03-25T15:05:50.020Z,99469.06
2023-03-25T15:08:21.824Z,99465.22
2023-03-25T15:11:10.239Z,99459.03
2023-03-25T15:13:56.205Z,99450.31
2023-03-25T15:16:33.951Z,99459.38
2023-03-25T15:19:10.769Z,99485.56
2023-03-25T15:22:18.266Z,99474.31
2023-03-25T15:24:58.015Z,99434.66
2023-03-25T15:27:53.851Z,99467.38
2023-03-25T15:31:01.203Z,99467.13
2023-03-25T15:34:16.200Z,99451.47
2023-03-25T15:36:43.725Z,99459.03
2023-03-25T15:39:50.071Z,99460.38
2023-03-25T15:42:48.908Z,99460.56
2023-03-25T15:46:01.035Z,99446.53
2023-03-25T15:48:59.066Z,99426.03
2023-03-25T15:51:52.574Z,99448.22
2023-03-25T15:58:03.966Z,99471.69
2023-03-25T16:00:40.976Z,99430.38
2023-03-25T16:06:33.867Z,99442.00
2023-03-25T16:09:12.549Z,99418.94
2023-03-25T16:11:46.457Z,99453.50
2023-03-25T16:17:25.412Z,99462.69
2023-03-25T16:25:36.835Z,99412.63
2023-03-25T16:28:19.071Z,99432.78
2023-03-25T16:31:00.750Z,99464.91
2023-03-25T16:39:20.957Z,99464.47
2023-03-25T16:41:59.735Z,99425.63
2023-03-25T16:44:38.119Z,99470.81
2023-03-25T16:47:09.564Z,99446.28
2023-03-25T16:49:43.951Z,99475.19
2023-03-25T16:52:25.531Z,99442.81
2023-03-25T16:57:45.664Z,99412.16
2023-03-25T17:00:42.170Z,99438.47
2023-03-25T17:03:48.969Z,99401.94
2023-03-25T17:06:42.986Z,99479.38
2023-03-25T17:09:29.275Z,99427.28
2023-03-25T17:12:00.748Z,99450.34
2023-03-25T17:14:33.958Z,99463.28
2023-03-25T17:17:57.295Z,99515.88
2023-03-25T17:20:45.097Z,99496.53
2023-03-25T17:23:43.569Z,99521.50
2023-03-25T17:26:13.792Z,99489.19
2023-03-25T17:29:07.235Z,99491.31
2023-03-25T17:31:47.464Z,99524.69
2023-03-25T17:34:20.468Z,99486.63
2023-03-25T17:36:51.616Z,99500.66
2023-03-25T17:39:30.000Z,99520.34
2023-03-25T17:42:03.843Z,99519.69
2023-03-25T17:44:47.180Z,99499.94
2023-03-25T17:50:00.747Z,99542.81
2023-03-25T17:52:37.363Z,99518.06
2023-03-25T17:57:54.016Z,99543.97
2023-03-25T18:11:06.853Z,99549.91
2023-03-25T18:14:13.927Z,99498.94
2023-03-25T18:17:45.154Z,99558.59
2023-03-25T18:21:10.065Z,99566.06
2023-03-25T18:31:07.894Z,99592.41
2023-03-25T18:34:02.272Z,99564.88
2023-03-25T18:39:19.626Z,99530.22
2023-03-25T18:41:54.386Z,99549.53
2023-03-25T18:43:52.682Z,99535.13
2023-03-25T18:46:26.393Z,99611.50
2023-03-25T18:51:42.883Z,99623.94
2023-03-25T18:54:18.393Z,99614.53
2023-03-25T18:56:57.098Z,99631.72
2023-03-25T18:59:42.179Z,99639.88
2023-03-25T19:02:22.181Z,99602.50
2023-03-25T19:08:03.250Z,99566.63
2023-03-25T19:14:40.424Z,99583.63
2023-03-25T19:17:17.921Z,99602.03
2023-03-25T19:19:51.842Z,99608.50
2023-03-25T19:25:37.052Z,99643.50
2023-03-25T19:28:10.865Z,99590.41
2023-03-25T19:35:34.752Z,99613.72
2023-03-25T19:46:31.704Z,99676.94
2023-03-25T20:00:26.430Z,99603.94
2023-03-25T20:27:11.089Z,99676.69
2023-03-25T20:29:53.146Z,99692.47
2023-03-25T20:32:40.753Z,99711.59
2023-03-25T20:35:43.540Z,99653.94
2023-03-25T20:38:14.922Z,99674.31
2023-03-25T20:44:12.992Z,99692.66
2023-03-25T20:46:44.812Z,99695.06
2023-03-25T20:52:05.732Z,99688.75
2023-03-25T20:54:53.994Z,99697.03
2023-03-25T20:57:30.543Z,99703.69
2023-03-25T21:02:57.932Z,99626.69
2023-03-25T21:05:27.635Z,99658.94
2023-03-25T21:08:01.724Z,99675.59
2023-03-25T21:10:36.421Z,99703.22
2023-03-25T21:13:09.424Z,99672.53
2023-03-25T21:18:38.786Z,99710.06
2023-03-25T21:21:10.198Z,99676.50
2023-03-25T21:26:14.316Z,99720.63
2023-03-25T21:28:46.077Z,99727.00
2023-03-25T21:31:32.523Z,99698.06
2023-03-25T21:34:04.657Z,99727.09
2023-03-25T21:36:42.243Z,99728.19
2023-03-25T21:39:21.378Z,99730.91
2023-03-25T21:41:55.182Z,99720.50
2023-03-25T21:47:09.242Z,99726.72
2023-03-25T21:52:35.677Z,99739.34
2023-03-25T21:55:09.967Z,99715.06
2023-03-25T21:57:40.261Z,99736.38
2023-03-25T22:00:20.762Z,99729.41
2023-03-25T22:02:51.073Z,99719.31
2023-03-25T22:05:23.710Z,99638.38
2023-03-25T22:07:51.170Z,99734.47
2023-03-25T22:10:18.656Z,99731.06
2023-03-25T22:12:55.756Z,99748.13
2023-03-25T22:18:05.804Z,99750.28
2023-03-25T22:20:35.100Z,99757.06
2023-03-25T22:23:18.076Z,99761.00
2023-03-25T22:26:09.951Z,99757.81
2023-03-25T22:28:40.598Z,99726.50
2023-03-25T22:31:08.931Z,99752.13
2023-03-25T22:33:36.827Z,99738.78
2023-03-25T22:36:24.271Z,99739.25
2023-03-25T22:38:51.943Z,99727.16
2023-03-25T22:41:19.330Z,99735.91
2023-03-25T22:43:49.447Z,99730.94
2023-03-25T22:46:17.219Z,99745.84
2023-03-25T22:48:44.688Z,99736.75
2023-03-25T22:51:16.016Z,99745.00
2023-03-25T22:53:45.288Z,99692.88
2023-03-25T22:56:14.549Z,99744.22
2023-03-25T22:58:43.363Z,99653.88
2023-03-25T23:01:23.845Z,99663.72
2023-03-25T23:04:52.512Z,99751.97
2023-03-25T23:07:20.905Z,99760.75
2023-03-25T23:09:48.379Z,99681.09
2023-03-25T23:12:21.971Z,99759.75
2023-03-25T23:14:57.010Z,99734.97
2023-03-25T23:17:25.524Z,99759.81
2023-03-25T23:19:52.797Z,99742.72
2023-03-25T23:22:21.304Z,99715.31
2023-03-25T23:24:49.521Z,99739.25
2023-03-25T23:27:25.914Z,99710.91
2023-03-25T23:29:55.112Z,99755.25
2023-03-25T23:32:22.349Z,99712.81
2023-03-25T23:34:50.394Z,99668.44
2023-03-25T23:37:19.600Z,99723.53
2023-03-25T23:39:46.574Z,99676.81
2023-03-25T23:44:57.128Z,99675.97
2023-03-25T23:47:25.319Z,99709.25
2023-03-25T23:49:59.001Z,99763.38
2023-03-25T23:52:27.436Z,99734.88
2023-03-25T23:54:54.659Z,99756.19
2023-03-25T23:57:27.743Z,99742.47
2023-03-25T23:59:55.744Z,99755.25
